Time;durP1;ratioP1;P1;durP2;ratioP2;P2;SDS_P1;SDS_P2;PMS_P1;PMS_P2;Temp;Humidity;BMP_temperature;BMP_pressure;BME280_temperature;BME280_humidity;BME280_pressure;Samples;Min_cycle;Max_cycle;Signal;HPM_P1;HPM_P2
2022/04/06 00:02:09;;;;;;;49.07;45.13;;;;;;;;;;5117820;28;20898;-72
2022/04/06 00:04:37;;;;;;;55.90;51.13;;;;;;;;;;5118252;28;20465;-71
2022/04/06 00:07:05;;;;;;;49.63;45.77;;;;;;;;;;5117657;28;20465;-71
2022/04/06 00:09:37;;;;;;;57.57;52.47;;;;;;;;;;5116967;28;20735;-71
2022/04/06 00:12:07;;;;;;;57.47;52.60;;;;;;;;;;5117261;28;20516;-71
2022/04/06 00:14:38;;;;;;;54.03;49.57;;;;;;;;;;5117901;28;20454;-71
2022/04/06 00:17:07;;;;;;;63.73;57.87;;;;;;;;;;5117279;28;20472;-71
2022/04/06 00:19:36;;;;;;;84.67;65.87;;;;;;;;;;5117275;28;20890;-71
2022/04/06 00:22:04;;;;;;;79.00;69.50;;;;;;;;;;5117494;28;20567;-71
2022/04/06 00:24:35;;;;;;;83.83;68.87;;;;;;;;;;5117839;28;20447;-71
2022/04/06 00:27:02;;;;;;;72.37;64.97;;;;;;;;;;5117292;28;20469;-71
2022/04/06 00:29:32;;;;;;;59.90;54.57;;;;;;;;;;5117290;28;20739;-71
2022/04/06 00:31:59;;;;;;;43.70;40.27;;;;;;;;;;5117793;28;20454;-72
2022/04/06 00:37:09;;;;;;;48.57;44.57;;;;;;;;;;5116491;28;20431;-71
2022/04/06 00:39:36;;;;;;;68.63;61.90;;;;;;;;;;5116617;28;20508;-71
2022/04/06 00:42:04;;;;;;;72.90;65.10;;;;;;;;;;5117315;28;20539;-72
2022/04/06 00:44:34;;;;;;;71.97;64.57;;;;;;;;;;5117465;28;20523;-71
2022/04/06 00:47:03;;;;;;;73.10;65.17;;;;;;;;;;5117194;28;20777;-71
2022/04/06 00:49:31;;;;;;;100.70;74.77;;;;;;;;;;5116982;28;20476;-71
2022/04/06 00:52:00;;;;;;;84.87;70.77;;;;;;;;;;5102347;28;20755;-71
2022/04/06 00:54:29;;;;;;;59.87;54.07;;;;;;;;;;5096875;28;20448;-71
2022/04/06 00:56:59;;;;;;;78.00;68.80;;;;;;;;;;5096464;28;20471;-71
2022/04/06 00:59:28;;;;;;;57.80;52.67;;;;;;;;;;5096719;28;20513;-71
2022/04/06 01:01:58;;;;;;;70.23;63.27;;;;;;;;;;5096390;28;20502;-71
2022/04/06 01:04:26;;;;;;;37.87;34.53;;;;;;;;;;5096548;28;20694;-71
2022/04/06 01:06:57;;;;;;;55.30;50.10;;;;;;;;;;5096368;28;20455;-71
2022/04/06 01:09:31;;;;;;;59.90;54.00;;;;;;;;;;5097164;28;20883;-71
2022/04/06 01:11:59;;;;;;;73.03;62.87;;;;;;;;;;5096598;28;20542;-72
2022/04/06 01:14:27;;;;;;;72.97;64.70;;;;;;;;;;5096080;28;20462;-71
2022/04/06 01:17:00;;;;;;;68.50;61.50;;;;;;;;;;5096861;28;20444;-73
2022/04/06 01:19:43;;;;;;;67.73;60.93;;;;;;;;;;5096183;28;20530;-72
2022/04/06 01:22:13;;;;;;;80.10;68.10;;;;;;;;;;5080451;28;21245;-72
2022/04/06 01:24:41;;;;;;;71.40;63.90;;;;;;;;;;5096160;28;20867;-72
2022/04/06 01:27:10;;;;;;;79.47;68.90;;;;;;;;;;5096104;28;20452;-73
2022/04/06 01:29:40;;;;;;;45.87;42.23;;;;;;;;;;5096268;28;20931;-72
2022/04/06 01:32:11;;;;;;;65.77;59.37;;;;;;;;;;5096274;28;20456;-72
2022/04/06 01:34:39;;;;;;;75.20;64.53;;;;;;;;;;5095338;28;20444;-72
2022/04/06 01:37:08;;;;;;;51.50;47.30;;;;;;;;;;5095301;28;20455;-72
2022/04/06 01:39:37;;;;;;;59.30;53.87;;;;;;;;;;5095680;28;20448;-72
2022/04/06 01:42:06;;;;;;;51.13;47.07;;;;;;;;;;5095493;28;20491;-73
2022/04/06 01:44:34;;;;;;;58.87;53.17;;;;;;;;;;5096872;28;20959;-72
2022/04/06 01:47:02;;;;;;;58.07;52.77;;;;;;;;;;5116631;28;20450;-72
2022/04/06 01:52:15;;;;;;;54.43;49.67;;;;;;;;;;5120682;28;20434;-72
2022/04/06 01:54:45;;;;;;;51.47;47.20;;;;;;;;;;5121257;28;20552;-72
2022/04/06 01:57:13;;;;;;;55.23;49.97;;;;;;;;;;5120467;28;20768;-72
2022/04/06 01:59:41;;;;;;;32.87;30.27;;;;;;;;;;5120897;28;20454;-72
2022/04/06 02:02:10;;;;;;;64.27;57.67;;;;;;;;;;5120272;28;20927;-72
2022/04/06 02:04:39;;;;;;;49.60;45.40;;;;;;;;;;5120100;28;20450;-72
2022/04/06 02:07:09;;;;;;;77.43;61.67;;;;;;;;;;5120673;28;20542;-72
2022/04/06 02:09:38;;;;;;;59.50;54.07;;;;;;;;;;5119529;28;20467;-72
2022/04/06 02:12:09;;;;;;;63.37;57.30;;;;;;;;;;5120307;28;20447;-72
2022/04/06 02:14:37;;;;;;;47.23;42.73;;;;;;;;;;5118948;28;20511;-72
2022/04/06 02:17:07;;;;;;;55.37;50.47;;;;;;;;;;5120698;28;20454;-72
2022/04/06 02:19:36;;;;;;;53.00;48.00;;;;;;;;;;5120305;28;20454;-72
2022/04/06 02:22:04;;;;;;;37.03;34.17;;;;;;;;;;5120454;28;20647;-72
2022/04/06 02:24:32;;;;;;;62.37;55.50;;;;;;;;;;5119792;28;20543;-72
2022/04/06 02:27:00;;;;;;;60.00;54.30;;;;;;;;;;5119699;28;20454;-72
2022/04/06 02:29:29;;;;;;;64.27;57.47;;;;;;;;;;5120089;28;20472;-73
2022/04/06 02:31:56;;;;;;;56.97;51.67;;;;;;;;;;5120306;28;20533;-72
2022/04/06 02:34:24;;;;;;;52.17;48.20;;;;;;;;;;5119773;28;20478;-72
2022/04/06 02:36:52;;;;;;;41.40;38.20;;;;;;;;;;5119654;28;20455;-73
2022/04/06 02:39:20;;;;;;;55.97;51.27;;;;;;;;;;5111899;28;20574;-72
2022/04/06 02:41:48;;;;;;;54.73;49.83;;;;;;;;;;5098509;28;20480;-72
2022/04/06 02:44:16;;;;;;;59.10;53.20;;;;;;;;;;5099036;28;20534;-72
2022/04/06 02:46:46;;;;;;;55.93;50.13;;;;;;;;;;5099159;28;20513;-71
2022/04/06 02:49:14;;;;;;;53.77;49.13;;;;;;;;;;5099263;28;20516;-71
2022/04/06 02:51:42;;;;;;;52.30;48.00;;;;;;;;;;5098989;28;20524;-72
2022/04/06 02:54:09;;;;;;;49.43;45.47;;;;;;;;;;5099173;28;20860;-71
2022/04/06 02:56:37;;;;;;;46.03;42.10;;;;;;;;;;5099031;28;20460;-71
2022/04/06 02:59:06;;;;;;;51.60;47.23;;;;;;;;;;5104868;28;20442;-72
2022/04/06 03:01:34;;;;;;;62.37;56.80;;;;;;;;;;5116849;28;20489;-71
2022/04/06 03:04:03;;;;;;;58.03;52.73;;;;;;;;;;5101774;28;20447;-71
2022/04/06 03:06:35;;;;;;;71.00;64.17;;;;;;;;;;5100029;28;20462;-71
2022/04/06 03:09:02;;;;;;;73.00;65.33;;;;;;;;;;5115459;28;20818;-71
2022/04/06 03:11:30;;;;;;;68.83;61.70;;;;;;;;;;5104657;28;20786;-72
2022/04/06 03:14:01;;;;;;;61.13;55.87;;;;;;;;;;5110520;28;20445;-72
2022/04/06 03:16:29;;;;;;;63.80;57.77;;;;;;;;;;5118363;28;20461;-71
2022/04/06 03:18:57;;;;;;;35.60;33.03;;;;;;;;;;5099115;28;20447;-72
2022/04/06 03:21:30;;;;;;;42.70;39.40;;;;;;;;;;5103955;27;20475;-72
2022/04/06 03:24:07;;;;;;;47.33;43.20;;;;;;;;;;5098583;28;20448;-72
2022/04/06 03:26:42;;;;;;;58.80;53.20;;;;;;;;;;5098006;28;20463;-72
2022/04/06 03:29:11;;;;;;;50.77;46.50;;;;;;;;;;5097602;28;20458;-72
2022/04/06 03:31:39;;;;;;;69.93;62.97;;;;;;;;;;5098069;28;20454;-71
2022/04/06 03:34:20;;;;;;;65.87;59.20;;;;;;;;;;5097983;28;20452;-72
2022/04/06 03:36:50;;;;;;;66.27;59.47;;;;;;;;;;5105093;28;20797;-71
2022/04/06 03:39:18;;;;;;;43.57;39.87;;;;;;;;;;5118050;28;21050;-72
2022/04/06 03:41:45;;;;;;;63.43;56.97;;;;;;;;;;5118319;28;20478;-72
2022/04/06 03:44:17;;;;;;;45.83;41.43;;;;;;;;;;5118125;28;20451;-71
2022/04/06 03:46:45;;;;;;;46.93;42.93;;;;;;;;;;5118505;28;20461;-71
2022/04/06 03:49:14;;;;;;;57.77;52.27;;;;;;;;;;5118276;28;20862;-71
2022/04/06 03:51:42;;;;;;;42.43;39.03;;;;;;;;;;5118325;28;20547;-71
2022/04/06 03:54:11;;;;;;;67.80;61.70;;;;;;;;;;5117960;28;20545;-72
2022/04/06 03:56:39;;;;;;;65.37;58.90;;;;;;;;;;5118239;28;20451;-71
2022/04/06 03:59:07;;;;;;;66.47;59.90;;;;;;;;;;5118186;28;20495;-72
2022/04/06 04:01:35;;;;;;;59.33;53.90;;;;;;;;;;5117870;28;20486;-72
2022/04/06 04:04:04;;;;;;;68.07;61.27;;;;;;;;;;5117876;28;20531;-71
2022/04/06 04:06:32;;;;;;;79.53;72.23;;;;;;;;;;5115458;28;20915;-71
2022/04/06 04:09:01;;;;;;;76.07;67.97;;;;;;;;;;5116825;28;20455;-71
2022/04/06 04:11:30;;;;;;;77.70;66.33;;;;;;;;;;5118083;28;20443;-71
2022/04/06 04:13:58;;;;;;;34.20;31.07;;;;;;;;;;5130317;27;20453;-72
2022/04/06 04:16:25;;;;;;;37.60;34.67;;;;;;;;;;5137837;27;20685;-71
2022/04/06 04:18:54;;;;;;;34.90;32.37;;;;;;;;;;5137843;27;20526;-72
2022/04/06 04:21:34;;;;;;;35.10;32.67;;;;;;;;;;5137301;27;20868;-71
2022/04/06 04:24:02;;;;;;;34.27;30.87;;;;;;;;;;5136549;27;20449;-72
2022/04/06 04:26:31;;;;;;;36.13;33.67;;;;;;;;;;5138143;27;20854;-72
2022/04/06 04:28:59;;;;;;;56.73;51.80;;;;;;;;;;5117099;27;20463;-72
2022/04/06 04:31:27;;;;;;;45.73;41.93;;;;;;;;;;5116847;28;20871;-71
2022/04/06 04:33:55;;;;;;;37.40;34.30;;;;;;;;;;5116782;28;20511;-72
2022/04/06 04:36:23;;;;;;;50.30;46.17;;;;;;;;;;5117313;28;20476;-71
2022/04/06 04:39:24;;;;;;;60.53;55.17;;;;;;;;;;5116845;28;20783;-72
2022/04/06 04:41:57;;;;;;;61.07;55.57;;;;;;;;;;5116757;28;20517;-72
2022/04/06 04:44:30;;;;;;;64.10;58.27;;;;;;;;;;5116402;28;20500;-71
2022/04/06 04:46:58;;;;;;;28.20;26.50;;;;;;;;;;5116771;28;20529;-72
2022/04/06 04:49:28;;;;;;;45.57;41.93;;;;;;;;;;5116037;28;20455;-72
2022/04/06 04:51:59;;;;;;;35.63;32.03;;;;;;;;;;5116414;28;21063;-72
2022/04/06 04:54:27;;;;;;;55.70;50.90;;;;;;;;;;5116541;28;20451;-71
2022/04/06 04:56:56;;;;;;;57.10;52.40;;;;;;;;;;5115810;28;20534;-71
2022/04/06 04:59:25;;;;;;;65.60;59.80;;;;;;;;;;5116031;28;20460;-72
2022/04/06 05:01:52;;;;;;;54.80;50.00;;;;;;;;;;5116304;28;20486;-71
2022/04/06 05:04:23;;;;;;;75.10;67.57;;;;;;;;;;5116121;28;20468;-72
2022/04/06 05:06:51;;;;;;;72.77;65.37;;;;;;;;;;5116065;28;20480;-72
2022/04/06 05:09:19;;;;;;;55.03;50.30;;;;;;;;;;5115229;28;20480;-72
2022/04/06 05:11:46;;;;;;;71.13;64.23;;;;;;;;;;5115831;28;20466;-72
2022/04/06 05:14:15;;;;;;;55.87;50.67;;;;;;;;;;5114634;28;20979;-72
2022/04/06 05:16:43;;;;;;;72.13;64.93;;;;;;;;;;5115952;28;20443;-71
2022/04/06 05:19:10;;;;;;;76.90;68.77;;;;;;;;;;5116111;28;20454;-71
2022/04/06 05:21:41;;;;;;;47.47;43.60;;;;;;;;;;5114827;28;20897;-71
2022/04/06 05:24:09;;;;;;;98.27;84.13;;;;;;;;;;5115399;28;20455;-71
2022/04/06 05:26:36;;;;;;;71.47;64.47;;;;;;;;;;5114662;28;20484;-70
2022/04/06 05:29:04;;;;;;;75.37;68.10;;;;;;;;;;5114978;28;20504;-70
2022/04/06 05:31:33;;;;;;;73.73;65.80;;;;;;;;;;5115969;28;20472;-71
2022/04/06 05:34:01;;;;;;;95.97;79.60;;;;;;;;;;5116162;28;20442;-70
2022/04/06 05:36:28;;;;;;;69.40;62.50;;;;;;;;;;5107074;28;20508;-71
2022/04/06 05:38:56;;;;;;;106.73;80.50;;;;;;;;;;5105340;28;20442;-70
2022/04/06 05:41:24;;;;;;;72.97;65.47;;;;;;;;;;5115176;28;20451;-70
2022/04/06 05:43:51;;;;;;;74.60;66.70;;;;;;;;;;5114445;28;20479;-71
2022/04/06 05:46:19;;;;;;;66.73;60.10;;;;;;;;;;5114875;28;20443;-71
2022/04/06 05:48:52;;;;;;;81.23;71.90;;;;;;;;;;5115674;28;20454;-71
2022/04/06 05:51:20;;;;;;;68.87;61.67;;;;;;;;;;5115732;28;20836;-71
2022/04/06 05:53:47;;;;;;;79.73;71.87;;;;;;;;;;5102113;28;20444;-71
2022/04/06 05:56:15;;;;;;;82.47;73.57;;;;;;;;;;5110508;28;20449;-71
2022/04/06 05:58:43;;;;;;;87.10;77.80;;;;;;;;;;5115708;28;20461;-71
2022/04/06 06:01:12;;;;;;;81.80;73.90;;;;;;;;;;5111561;28;20486;-71
2022/04/06 06:03:40;;;;;;;74.13;67.17;;;;;;;;;;5113513;28;20471;-71
2022/04/06 06:06:09;;;;;;;69.90;63.40;;;;;;;;;;5113717;28;20481;-71
2022/04/06 06:08:37;;;;;;;106.47;83.83;;;;;;;;;;5114498;28;20447;-71
2022/04/06 06:11:05;;;;;;;85.23;76.00;;;;;;;;;;5114528;28;20459;-70
2022/04/06 06:13:37;;;;;;;92.03;80.50;;;;;;;;;;5113253;28;20519;-71
2022/04/06 06:16:11;;;;;;;60.73;55.53;;;;;;;;;;5112166;28;20578;-71
2022/04/06 06:18:39;;;;;;;75.53;67.63;;;;;;;;;;5113987;28;20451;-71
2022/04/06 06:21:07;;;;;;;85.03;76.13;;;;;;;;;;5113656;28;20447;-71
2022/04/06 06:23:36;;;;;;;96.63;80.03;;;;;;;;;;5114350;28;21124;-71
2022/04/06 06:26:04;;;;;;;74.10;67.37;;;;;;;;;;5113487;28;20519;-70
2022/04/06 06:28:32;;;;;;;75.63;67.50;;;;;;;;;;5114172;28;20463;-70
2022/04/06 06:31:00;;;;;;;103.77;87.70;;;;;;;;;;5113899;28;20443;-70
2022/04/06 06:33:27;;;;;;;76.87;68.70;;;;;;;;;;5114117;28;20474;-71
2022/04/06 06:35:55;;;;;;;67.23;60.17;;;;;;;;;;5113910;28;20535;-70
2022/04/06 06:38:22;;;;;;;110.93;85.57;;;;;;;;;;5115957;28;20450;-70
2022/04/06 06:40:52;;;;;;;125.90;92.97;;;;;;;;;;5118201;28;20461;-70
2022/04/06 06:43:27;;;;;;;73.87;64.90;;;;;;;;;;5115852;28;20544;-71
2022/04/06 06:45:55;;;;;;;74.77;67.47;;;;;;;;;;5108936;28;20457;-70
2022/04/06 06:48:23;;;;;;;86.93;78.17;;;;;;;;;;5101913;28;20447;-71
2022/04/06 06:50:54;;;;;;;94.13;77.67;;;;;;;;;;5108469;28;20482;-71
2022/04/06 06:53:21;;;;;;;87.47;78.33;;;;;;;;;;5112831;28;20501;-71
2022/04/06 06:55:49;;;;;;;107.50;84.77;;;;;;;;;;5104729;28;20447;-71
2022/04/06 06:58:19;;;;;;;75.57;68.07;;;;;;;;;;5101453;28;20455;-72
2022/04/06 07:00:46;;;;;;;70.87;64.77;;;;;;;;;;5109433;28;20435;-73
2022/04/06 07:03:18;;;;;;;97.73;86.97;;;;;;;;;;5115501;28;20492;-72
2022/04/06 07:05:48;;;;;;;89.73;81.07;;;;;;;;;;5114766;27;20563;-72
2022/04/06 07:08:16;;;;;;;134.63;87.17;;;;;;;;;;5118159;28;20435;-71
2022/04/06 07:10:51;;;;;;;107.77;94.07;;;;;;;;;;5110263;28;20540;-72
2022/04/06 07:13:25;;;;;;;88.10;79.10;;;;;;;;;;5097561;28;20435;-72
2022/04/06 07:15:59;;;;;;;60.40;55.23;;;;;;;;;;5097121;28;20468;-71
2022/04/06 07:18:27;;;;;;;89.07;79.50;;;;;;;;;;5097524;28;20455;-71
2022/04/06 07:20:56;;;;;;;87.07;78.77;;;;;;;;;;5096905;28;20921;-72
2022/04/06 07:23:24;;;;;;;72.43;66.37;;;;;;;;;;5096015;28;20483;-72
2022/04/06 07:25:55;;;;;;;78.87;72.10;;;;;;;;;;5100794;27;20524;-73
2022/04/06 07:28:44;;;;;;;81.53;73.83;;;;;;;;;;5102343;28;20459;-72
2022/04/06 07:31:14;;;;;;;87.10;78.57;;;;;;;;;;5099779;28;20560;-72
2022/04/06 07:33:45;;;;;;;76.93;68.97;;;;;;;;;;5117475;28;20454;-73
2022/04/06 07:36:17;;;;;;;76.00;68.70;;;;;;;;;;5116538;28;20443;-73
2022/04/06 07:38:45;;;;;;;96.77;85.90;;;;;;;;;;5117499;28;20944;-71
2022/04/06 07:41:13;;;;;;;88.83;80.13;;;;;;;;;;5119295;27;20566;-71
2022/04/06 07:43:42;;;;;;;93.83;83.67;;;;;;;;;;5136402;27;20478;-72
2022/04/06 07:46:10;;;;;;;86.57;77.27;;;;;;;;;;5124729;27;20462;-71
2022/04/06 07:48:39;;;;;;;105.80;82.07;;;;;;;;;;5096213;28;20761;-71
2022/04/06 07:51:08;;;;;;;117.13;84.97;;;;;;;;;;5113211;28;20470;-72
2022/04/06 07:53:35;;;;;;;101.13;81.37;;;;;;;;;;5116062;28;20896;-71
2022/04/06 07:56:10;;;;;;;90.63;81.00;;;;;;;;;;5115525;28;20525;-72
2022/04/06 07:58:39;;;;;;;95.90;86.17;;;;;;;;;;5111010;28;20469;-72
2022/04/06 08:01:08;;;;;;;80.03;71.60;;;;;;;;;;5113727;28;20754;-71
2022/04/06 08:03:37;;;;;;;82.40;73.57;;;;;;;;;;5118355;27;21108;-72
2022/04/06 08:06:12;;;;;;;62.97;57.73;;;;;;;;;;5116721;28;20538;-72
2022/04/06 08:08:40;;;;;;;80.37;72.63;;;;;;;;;;5114864;28;20870;-72
2022/04/06 08:11:09;;;;;;;73.17;66.50;;;;;;;;;;5113782;28;20451;-71
2022/04/06 08:13:36;;;;;;;80.70;73.37;;;;;;;;;;5115998;28;20463;-72
2022/04/06 08:16:05;;;;;;;80.70;73.10;;;;;;;;;;5115761;28;20455;-72
2022/04/06 08:18:40;;;;;;;90.47;81.50;;;;;;;;;;5115758;28;20469;-73
2022/04/06 08:21:11;;;;;;;78.57;71.70;;;;;;;;;;5116025;28;20464;-72
2022/04/06 08:29:11;;;;;;;77.43;69.77;;;;;;;;;;5113351;28;20450;-71
2022/04/06 08:31:41;;;;;;;81.67;74.27;;;;;;;;;;5119593;27;20550;-72
2022/04/06 08:34:15;;;;;;;94.63;85.03;;;;;;;;;;5113764;28;20474;-70
2022/04/06 08:36:49;;;;;;;108.00;95.40;;;;;;;;;;5096966;28;20462;-72
2022/04/06 08:39:20;;;;;;;99.70;89.10;;;;;;;;;;5114494;28;20562;-72
2022/04/06 08:41:54;;;;;;;127.57;106.23;;;;;;;;;;5115744;28;20474;-72
2022/04/06 08:44:24;;;;;;;134.73;104.30;;;;;;;;;;5114129;28;20920;-71
2022/04/06 08:47:03;;;;;;;109.13;89.20;;;;;;;;;;5104221;28;20462;-74
2022/04/06 08:49:37;;;;;;;83.00;75.70;;;;;;;;;;5107297;28;20532;-71
2022/04/06 08:52:05;;;;;;;67.13;61.77;;;;;;;;;;5111007;28;20446;-72
2022/04/06 08:54:34;;;;;;;111.37;100.77;;;;;;;;;;5120742;27;20497;-72
2022/04/06 08:57:02;;;;;;;79.33;73.13;;;;;;;;;;5106831;27;20880;-72
2022/04/06 08:59:31;;;;;;;66.90;61.50;;;;;;;;;;5112867;28;20959;-71
2022/04/06 09:01:59;;;;;;;96.73;87.03;;;;;;;;;;5114782;28;20450;-72
2022/04/06 09:04:29;;;;;;;109.97;92.00;;;;;;;;;;5101937;28;20520;-72
2022/04/06 09:07:10;;;;;;;100.43;91.30;;;;;;;;;;5094125;28;20451;-72
2022/04/06 09:09:38;;;;;;;95.80;87.60;;;;;;;;;;5094084;28;20746;-72
2022/04/06 09:12:10;;;;;;;61.07;56.87;;;;;;;;;;5094041;28;20728;-72
2022/04/06 09:14:38;;;;;;;95.03;84.93;;;;;;;;;;5093920;28;20456;-71
2022/04/06 09:17:06;;;;;;;109.33;99.20;;;;;;;;;;5102031;28;20450;-72
2022/04/06 09:19:39;;;;;;;77.17;70.77;;;;;;;;;;5113841;28;20455;-72
2022/04/06 09:22:09;;;;;;;68.83;63.37;;;;;;;;;;5114412;28;20435;-72
2022/04/06 09:24:37;;;;;;;94.00;85.47;;;;;;;;;;5114439;28;20562;-72
2022/04/06 09:27:06;;;;;;;111.57;88.53;;;;;;;;;;5114871;28;20537;-72
2022/04/06 09:29:35;;;;;;;100.43;89.73;;;;;;;;;;5112760;28;20459;-72
2022/04/06 09:32:07;;;;;;;110.37;93.80;;;;;;;;;;5113996;28;20458;-71
2022/04/06 09:34:35;;;;;;;125.27;104.40;;;;;;;;;;5103192;28;21108;-72
2022/04/06 09:37:21;;;;;;;106.43;95.17;;;;;;;;;;5094067;28;20773;-72
2022/04/06 09:39:50;;;;;;;73.17;66.47;;;;;;;;;;5110292;28;20885;-72
2022/04/06 09:42:21;;;;;;;74.87;68.97;;;;;;;;;;5114347;28;20442;-72
2022/04/06 09:47:58;;;;;;;103.10;92.50;;;;;;;;;;5094507;28;20692;-72
2022/04/06 09:50:27;;;;;;;102.30;91.77;;;;;;;;;;5096158;28;20476;-70
2022/04/06 09:52:56;;;;;;;96.97;86.07;;;;;;;;;;5093934;28;20465;-72
2022/04/06 09:55:27;;;;;;;101.50;90.40;;;;;;;;;;5094678;28;21126;-72
2022/04/06 09:58:01;;;;;;;77.77;71.37;;;;;;;;;;5107266;28;20458;-72
2022/04/06 10:00:34;;;;;;;86.87;79.17;;;;;;;;;;5130137;28;20545;-73
2022/04/06 10:03:06;;;;;;;104.20;93.40;;;;;;;;;;5114580;28;20470;-70
2022/04/06 10:05:48;;;;;;;124.53;111.77;;;;;;;;;;5114114;28;20446;-70
2022/04/06 10:08:17;;;;;;;105.23;92.07;;;;;;;;;;5108449;28;20445;-72
2022/04/06 10:10:53;;;;;;;104.90;95.63;;;;;;;;;;5113881;28;20453;-72
2022/04/06 10:13:30;;;;;;;124.43;101.67;;;;;;;;;;5117173;28;20454;-72
2022/04/06 10:16:04;;;;;;;154.07;105.30;;;;;;;;;;5124860;27;20590;-72
2022/04/06 10:18:40;;;;;;;111.30;99.87;;;;;;;;;;5101825;27;20467;-72
2022/04/06 10:21:22;;;;;;;148.33;112.20;;;;;;;;;;5097381;28;20439;-71
2022/04/06 10:24:12;;;;;;;132.40;102.57;;;;;;;;;;5103325;28;20552;-73
2022/04/06 10:26:58;;;;;;;101.63;91.13;;;;;;;;;;5138721;27;20452;-72
2022/04/06 10:29:30;;;;;;;108.30;94.87;;;;;;;;;;5116315;27;20465;-72
2022/04/06 10:31:58;;;;;;;115.50;101.77;;;;;;;;;;5118282;28;20481;-71
2022/04/06 10:34:30;;;;;;;114.00;101.80;;;;;;;;;;5115427;28;20981;-72
2022/04/06 10:37:12;;;;;;;98.83;89.83;;;;;;;;;;5117950;28;20485;-71
2022/04/06 10:40:03;;;;;;;114.37;98.93;;;;;;;;;;5110379;28;20456;-71
2022/04/06 10:42:35;;;;;;;111.07;99.97;;;;;;;;;;5110122;27;20482;-72
2022/04/06 10:45:28;;;;;;;111.90;99.57;;;;;;;;;;5106373;28;20565;-72
2022/04/06 10:48:19;;;;;;;111.17;99.30;;;;;;;;;;5112277;28;20457;-71
2022/04/06 10:51:24;;;;;;;111.50;91.43;;;;;;;;;;5123035;27;20541;-70
2022/04/06 10:57:02;;;;;;;91.60;84.07;;;;;;;;;;5003612;28;20509;-73
2022/04/06 10:59:30;;;;;;;124.57;102.87;;;;;;;;;;5073101;28;20463;-71
2022/04/06 11:02:21;;;;;;;118.03;101.33;;;;;;;;;;5118756;28;20718;-71
2022/04/06 11:04:59;;;;;;;120.97;102.20;;;;;;;;;;5101960;27;20552;-73
2022/04/06 11:10:56;;;;;;;106.07;94.90;;;;;;;;;;5080656;28;20431;-72
2022/04/06 11:13:44;;;;;;;114.37;99.23;;;;;;;;;;5107967;28;20452;-73
2022/04/06 11:16:32;;;;;;;118.50;91.67;;;;;;;;;;5083475;28;20463;-72
2022/04/06 11:19:00;;;;;;;95.47;86.77;;;;;;;;;;5095364;28;20462;-72
2022/04/06 11:21:30;;;;;;;104.77;94.37;;;;;;;;;;5095226;28;20459;-72
2022/04/06 11:23:59;;;;;;;107.77;95.50;;;;;;;;;;5093946;28;20783;-73
2022/04/06 11:26:27;;;;;;;61.27;56.13;;;;;;;;;;5098620;28;20463;-72
2022/04/06 11:29:12;;;;;;;91.80;83.23;;;;;;;;;;5096201;28;20530;-73
2022/04/06 11:32:11;;;;;;;110.03;98.17;;;;;;;;;;5096345;28;20475;-74
2022/04/06 11:34:40;;;;;;;127.03;102.67;;;;;;;;;;5105721;28;20477;-72
2022/04/06 11:37:11;;;;;;;168.70;114.07;;;;;;;;;;5106615;28;20486;-73
2022/04/06 11:39:39;;;;;;;109.17;95.03;;;;;;;;;;5115497;28;20494;-72
2022/04/06 11:42:18;;;;;;;122.60;107.37;;;;;;;;;;5103764;28;20509;-72
2022/04/06 11:44:46;;;;;;;73.97;68.93;;;;;;;;;;5110956;28;20849;-72
2022/04/06 11:47:31;;;;;;;97.30;88.03;;;;;;;;;;5114672;28;20451;-73
2022/04/06 11:50:01;;;;;;;93.40;85.93;;;;;;;;;;5113401;28;20462;-74
2022/04/06 11:52:32;;;;;;;80.90;74.70;;;;;;;;;;5116003;28;20431;-72
2022/04/06 11:55:02;;;;;;;115.70;103.00;;;;;;;;;;5115467;28;20492;-73
2022/04/06 11:57:37;;;;;;;115.87;101.87;;;;;;;;;;5116578;28;20537;-71
2022/04/06 12:00:06;;;;;;;159.57;113.67;;;;;;;;;;5115472;28;20474;-72
2022/04/06 12:02:55;;;;;;;78.93;73.40;;;;;;;;;;5115581;28;20458;-71
2022/04/06 12:05:33;;;;;;;114.60;101.40;;;;;;;;;;5119280;27;20799;-74
2022/04/06 12:08:15;;;;;;;98.90;89.53;;;;;;;;;;5095517;28;20455;-73
2022/04/06 12:10:50;;;;;;;125.30;101.70;;;;;;;;;;5084739;28;20563;-72
2022/04/06 12:13:20;;;;;;;115.23;101.27;;;;;;;;;;5077684;28;20455;-73
2022/04/06 12:15:54;;;;;;;138.70;102.33;;;;;;;;;;5087017;28;20459;-72
2022/04/06 12:18:23;;;;;;;127.43;104.70;;;;;;;;;;5078344;28;20593;-72
2022/04/06 12:20:51;;;;;;;112.50;98.43;;;;;;;;;;5095086;28;20455;-72
2022/04/06 12:23:24;;;;;;;115.43;100.13;;;;;;;;;;5096180;28;20439;-72
2022/04/06 12:25:54;;;;;;;145.13;111.83;;;;;;;;;;5095650;28;20484;-73
2022/04/06 12:28:33;;;;;;;101.50;91.60;;;;;;;;;;5105865;28;20446;-73
2022/04/06 12:31:02;;;;;;;108.83;96.23;;;;;;;;;;5116397;28;20459;-72
2022/04/06 12:33:34;;;;;;;103.53;92.77;;;;;;;;;;5116622;28;20757;-72
2022/04/06 12:36:12;;;;;;;134.07;99.83;;;;;;;;;;5116443;28;20466;-73
2022/04/06 12:38:42;;;;;;;146.60;104.10;;;;;;;;;;5097039;28;20475;-72
2022/04/06 12:41:21;;;;;;;165.47;110.47;;;;;;;;;;5089823;28;20828;-71
2022/04/06 12:44:04;;;;;;;130.67;105.47;;;;;;;;;;5080235;28;20459;-73
2022/04/06 12:46:41;;;;;;;150.30;107.47;;;;;;;;;;5085020;28;20448;-73
2022/04/06 12:49:32;;;;;;;73.03;66.90;;;;;;;;;;5094399;28;20455;-74
2022/04/06 12:52:10;;;;;;;169.87;117.87;;;;;;;;;;5094520;28;20840;-73
2022/04/06 12:54:45;;;;;;;124.17;99.10;;;;;;;;;;5085356;28;20888;-73
2022/04/06 12:57:15;;;;;;;142.43;104.73;;;;;;;;;;5074603;28;20459;-72
2022/04/06 12:59:56;;;;;;;128.17;97.77;;;;;;;;;;5074966;28;20463;-73
2022/04/06 13:02:31;;;;;;;151.73;110.97;;;;;;;;;;5093943;28;20451;-77
2022/04/06 13:05:03;;;;;;;120.40;103.60;;;;;;;;;;5094321;28;20493;-74
2022/04/06 13:07:40;;;;;;;118.40;105.63;;;;;;;;;;5094559;28;20464;-74
2022/04/06 13:10:28;;;;;;;166.90;118.97;;;;;;;;;;5093446;28;20628;-73
2022/04/06 13:12:57;;;;;;;138.37;105.27;;;;;;;;;;5084095;28;20543;-74
2022/04/06 13:15:31;;;;;;;115.90;104.30;;;;;;;;;;5093965;28;20450;-73
2022/04/06 13:17:59;;;;;;;109.70;99.30;;;;;;;;;;5081838;28;20468;-74
2022/04/06 13:20:30;;;;;;;100.40;90.60;;;;;;;;;;5080444;28;20462;-73
2022/04/06 13:23:04;;;;;;;110.37;98.63;;;;;;;;;;5076742;28;20467;-74
2022/04/06 13:25:35;;;;;;;117.60;97.37;;;;;;;;;;5072952;28;20479;-73
2022/04/06 13:28:12;;;;;;;122.80;102.67;;;;;;;;;;5085869;28;21061;-73
2022/04/06 13:30:41;;;;;;;114.13;101.13;;;;;;;;;;5092941;28;20483;-74
2022/04/06 13:33:09;;;;;;;112.83;97.23;;;;;;;;;;5092645;28;20846;-74
2022/04/06 13:35:36;;;;;;;120.07;104.53;;;;;;;;;;5090447;28;20558;-74
2022/04/06 13:38:07;;;;;;;105.97;94.73;;;;;;;;;;5092227;28;20447;-73
2022/04/06 13:40:38;;;;;;;105.80;94.77;;;;;;;;;;5094804;28;20452;-74
2022/04/06 13:43:08;;;;;;;104.83;94.73;;;;;;;;;;5088028;28;20456;-74
2022/04/06 13:45:35;;;;;;;93.83;84.97;;;;;;;;;;5093733;28;20502;-74
2022/04/06 13:48:13;;;;;;;105.30;93.83;;;;;;;;;;5097923;28;20479;-74
2022/04/06 13:50:43;;;;;;;119.43;106.70;;;;;;;;;;5097768;28;20459;-74
2022/04/06 13:53:24;;;;;;;106.40;96.87;;;;;;;;;;5088889;28;20464;-74
2022/04/06 13:55:54;;;;;;;122.00;99.27;;;;;;;;;;5088435;28;20530;-74
2022/04/06 13:58:23;;;;;;;107.33;97.03;;;;;;;;;;5118566;28;20462;-73
2022/04/06 14:01:03;;;;;;;83.20;76.23;;;;;;;;;;5118105;28;20469;-75
2022/04/06 14:03:34;;;;;;;53.80;50.20;;;;;;;;;;5093248;28;20463;-74
2022/04/06 14:06:03;;;;;;;95.40;87.37;;;;;;;;;;5092923;28;20517;-74
2022/04/06 14:08:43;;;;;;;83.83;76.80;;;;;;;;;;5094736;28;20466;-75
2022/04/06 14:11:15;;;;;;;93.83;84.20;;;;;;;;;;5091935;28;20456;-75
2022/04/06 14:13:48;;;;;;;91.23;82.33;;;;;;;;;;5090769;28;20452;-73
2022/04/06 14:16:16;;;;;;;73.30;67.97;;;;;;;;;;5093694;28;20460;-74
2022/04/06 14:18:59;;;;;;;51.53;48.37;;;;;;;;;;5091837;28;20447;-74
2022/04/06 14:21:38;;;;;;;92.03;82.83;;;;;;;;;;5100855;28;20450;-74
2022/04/06 14:24:10;;;;;;;92.10;84.10;;;;;;;;;;5102410;28;20455;-74
2022/04/06 14:26:54;;;;;;;88.10;80.60;;;;;;;;;;5096922;28;20656;-73
2022/04/06 14:29:25;;;;;;;105.23;94.93;;;;;;;;;;5095158;28;20455;-72
2022/04/06 14:31:53;;;;;;;110.80;99.00;;;;;;;;;;5098348;28;20424;-73
2022/04/06 14:34:35;;;;;;;122.30;97.87;;;;;;;;;;5093771;28;20463;-74
2022/04/06 14:37:07;;;;;;;96.67;85.30;;;;;;;;;;5076618;28;20500;-74
2022/04/06 14:39:35;;;;;;;113.70;97.37;;;;;;;;;;5076794;28;20644;-73
2022/04/06 14:42:09;;;;;;;102.43;91.97;;;;;;;;;;5076195;28;20484;-72
2022/04/06 14:44:40;;;;;;;116.00;89.77;;;;;;;;;;5076172;28;20445;-72
2022/04/06 14:47:07;;;;;;;122.17;100.87;;;;;;;;;;5076653;28;20487;-73
2022/04/06 14:49:37;;;;;;;103.23;87.33;;;;;;;;;;5076635;28;21038;-74
2022/04/06 14:52:13;;;;;;;136.40;98.17;;;;;;;;;;5076032;28;20432;-73
2022/04/06 14:54:42;;;;;;;137.90;93.43;;;;;;;;;;5076133;28;20455;-73
2022/04/06 14:57:11;;;;;;;136.97;99.17;;;;;;;;;;5075452;28;20460;-72